createdAt,value
2022-12-18T00:00:06.877Z,89.73
2022-12-18T00:03:01.733Z,89.83
2022-12-18T00:05:29.932Z,89.88
2022-12-18T00:07:57.904Z,90.00
2022-12-18T00:10:26.044Z,90.00
2022-12-18T00:12:54.105Z,90.03
2022-12-18T00:15:22.114Z,90.15
2022-12-18T00:17:50.152Z,90.20
2022-12-18T00:20:22.735Z,90.21
2022-12-18T00:22:50.692Z,90.25
2022-12-18T00:25:18.823Z,90.38
2022-12-18T00:27:46.986Z,90.39
2022-12-18T00:30:15.658Z,90.36
2022-12-18T00:32:43.852Z,90.22
2022-12-18T00:35:12.206Z,90.21
2022-12-18T00:37:40.191Z,90.15
2022-12-18T00:40:08.923Z,90.21
2022-12-18T00:42:56.866Z,90.19
2022-12-18T00:45:27.504Z,90.25
2022-12-18T00:47:56.402Z,90.28
2022-12-18T00:50:26.111Z,90.23
2022-12-18T00:52:54.129Z,90.19
2022-12-18T00:55:22.146Z,90.26
2022-12-18T00:57:53.296Z,90.22
2022-12-18T01:00:21.550Z,90.29
2022-12-18T01:02:54.557Z,90.37
2022-12-18T01:05:22.889Z,90.50
2022-12-18T01:07:50.966Z,90.55
2022-12-18T01:10:19.311Z,90.54
2022-12-18T01:12:47.389Z,90.58
2022-12-18T01:15:17.038Z,90.67
2022-12-18T01:17:45.147Z,90.49
2022-12-18T01:20:14.379Z,90.35
2022-12-18T01:22:42.371Z,90.29
2022-12-18T01:25:10.798Z,90.22
2022-12-18T01:27:39.114Z,90.44
2022-12-18T01:30:07.951Z,90.38
2022-12-18T01:32:38.656Z,90.38
2022-12-18T01:35:07.377Z,90.41
2022-12-18T01:37:35.377Z,90.44
2022-12-18T01:40:03.736Z,90.57
2022-12-18T01:42:31.730Z,90.38
2022-12-18T01:45:08.040Z,90.29
2022-12-18T01:47:49.360Z,90.15
2022-12-18T01:50:22.281Z,90.01
2022-12-18T01:52:54.969Z,89.81
2022-12-18T01:55:25.043Z,89.68
2022-12-18T01:57:59.893Z,89.80
2022-12-18T02:00:28.948Z,89.79
2022-12-18T02:02:57.351Z,89.82
2022-12-18T02:05:56.663Z,89.91
2022-12-18T02:08:54.051Z,89.88
2022-12-18T02:11:56.328Z,89.69
2022-12-18T02:14:43.806Z,89.49
2022-12-18T02:17:18.931Z,89.33
2022-12-18T02:20:12.462Z,89.29
2022-12-18T02:23:15.805Z,89.33
2022-12-18T02:26:15.311Z,89.29
2022-12-18T02:28:50.336Z,89.39
2022-12-18T02:31:25.343Z,89.44
2022-12-18T02:33:59.827Z,89.57
2022-12-18T02:36:30.268Z,89.71
2022-12-18T02:39:00.146Z,89.87
2022-12-18T02:41:29.711Z,90.21
2022-12-18T02:44:00.901Z,90.28
2022-12-18T02:46:36.146Z,90.56
2022-12-18T02:49:20.059Z,90.55
2022-12-18T02:52:00.251Z,90.53
2022-12-18T02:54:46.699Z,90.40
2022-12-18T02:57:18.988Z,90.24
2022-12-18T03:00:01.835Z,90.00
2022-12-18T03:02:50.249Z,89.97
2022-12-18T03:05:26.139Z,89.78
2022-12-18T03:08:05.049Z,89.63
2022-12-18T03:10:40.937Z,89.40
2022-12-18T03:13:15.021Z,89.19
2022-12-18T03:15:49.075Z,88.97
2022-12-18T03:18:30.846Z,88.85
2022-12-18T03:21:04.085Z,88.85
2022-12-18T03:23:46.334Z,88.87
2022-12-18T03:26:19.043Z,88.88
2022-12-18T03:29:00.793Z,89.01
2022-12-18T03:31:32.314Z,88.90
2022-12-18T03:34:04.431Z,89.04
2022-12-18T03:36:41.479Z,88.87
2022-12-18T03:39:12.498Z,88.96
2022-12-18T03:42:06.023Z,88.85
2022-12-18T03:44:48.391Z,88.82
2022-12-18T03:47:31.474Z,88.80
2022-12-18T03:50:30.295Z,88.89
2022-12-18T03:53:16.592Z,88.93
2022-12-18T03:55:47.538Z,88.86
2022-12-18T03:58:20.802Z,88.71
2022-12-18T04:01:00.841Z,88.66
2022-12-18T04:03:32.170Z,88.65
2022-12-18T04:06:02.203Z,88.44
2022-12-18T04:08:31.078Z,88.23
2022-12-18T04:11:04.202Z,87.86
2022-12-18T04:13:38.569Z,87.83
2022-12-18T04:16:12.925Z,87.72
2022-12-18T04:18:42.573Z,87.56
2022-12-18T04:21:11.567Z,87.49
2022-12-18T04:23:39.999Z,87.41
2022-12-18T04:26:33.938Z,86.78
2022-12-18T04:29:11.588Z,87.05
2022-12-18T04:31:39.731Z,87.30
2022-12-18T04:34:08.360Z,87.37
2022-12-18T04:36:40.782Z,87.14
2022-12-18T04:39:09.047Z,87.20
2022-12-18T04:41:39.512Z,87.30
2022-12-18T04:44:07.698Z,87.01
2022-12-18T04:46:35.811Z,86.72
2022-12-18T04:49:03.851Z,86.60
2022-12-18T04:51:32.060Z,86.56
2022-12-18T04:54:00.128Z,86.30
2022-12-18T04:56:28.107Z,86.34
2022-12-18T04:58:56.089Z,86.27
2022-12-18T05:01:26.089Z,86.17
2022-12-18T05:03:56.280Z,86.30
2022-12-18T05:06:24.305Z,86.43
2022-12-18T05:08:52.498Z,86.62
2022-12-18T05:11:20.440Z,86.62
2022-12-18T05:13:48.803Z,86.41
2022-12-18T05:16:16.886Z,86.54
2022-12-18T05:18:45.067Z,86.51
2022-12-18T05:21:13.086Z,86.30
2022-12-18T05:23:41.528Z,86.40
2022-12-18T05:26:10.505Z,86.28
2022-12-18T05:28:39.044Z,86.22
2022-12-18T05:31:07.259Z,86.39
2022-12-18T05:33:36.372Z,86.53
2022-12-18T05:36:07.783Z,86.57
2022-12-18T05:38:37.712Z,86.65
2022-12-18T05:41:07.082Z,86.33
2022-12-18T05:43:37.257Z,86.40
2022-12-18T05:46:12.509Z,86.59
2022-12-18T05:48:40.618Z,86.86
2022-12-18T05:51:15.519Z,86.98
2022-12-18T05:53:44.590Z,87.09
2022-12-18T05:56:15.882Z,87.09
2022-12-18T05:58:44.837Z,86.90
2022-12-18T06:01:16.300Z,86.44
2022-12-18T06:03:45.152Z,86.25
2022-12-18T06:06:19.274Z,86.32
2022-12-18T06:08:51.010Z,86.47
2022-12-18T06:11:21.598Z,86.59
2022-12-18T06:13:58.265Z,86.72
2022-12-18T06:16:28.842Z,86.61
2022-12-18T06:18:58.578Z,86.54
2022-12-18T06:21:29.257Z,86.41
2022-12-18T06:23:57.516Z,86.25
2022-12-18T06:26:28.261Z,86.26
2022-12-18T06:28:57.195Z,86.37
2022-12-18T06:31:26.405Z,86.35
2022-12-18T06:33:54.505Z,85.96
2022-12-18T06:36:23.202Z,85.71
2022-12-18T06:38:51.370Z,85.61
2022-12-18T06:41:21.349Z,85.66
2022-12-18T06:43:49.555Z,85.96
2022-12-18T06:46:17.784Z,85.94
2022-12-18T06:48:49.618Z,85.32
2022-12-18T06:51:22.758Z,85.28
2022-12-18T06:53:51.253Z,85.36
2022-12-18T06:56:19.443Z,85.35
2022-12-18T06:58:50.956Z,85.23
2022-12-18T07:01:19.243Z,84.78
2022-12-18T07:03:54.663Z,84.64
2022-12-18T07:06:25.650Z,84.60
2022-12-18T07:08:55.354Z,84.20
2022-12-18T07:11:24.102Z,84.02
2022-12-18T07:13:54.101Z,83.52
2022-12-18T07:16:25.556Z,83.56
2022-12-18T07:18:57.454Z,83.87
2022-12-18T07:21:26.409Z,83.36
2022-12-18T07:23:54.986Z,83.32
2022-12-18T07:26:23.762Z,83.27
2022-12-18T07:28:55.467Z,83.11
2022-12-18T07:31:23.669Z,83.12
2022-12-18T07:33:52.424Z,82.82
2022-12-18T07:36:21.124Z,82.29
2022-12-18T07:38:50.485Z,82.28
2022-12-18T07:41:19.810Z,82.45
2022-12-18T07:43:48.490Z,82.30
2022-12-18T07:46:17.529Z,82.04
2022-12-18T07:48:49.849Z,81.80
2022-12-18T07:51:19.453Z,81.92
2022-12-18T07:53:49.268Z,82.01
2022-12-18T07:56:30.441Z,81.97
2022-12-18T07:59:00.318Z,82.02
2022-12-18T08:01:29.174Z,81.88
2022-12-18T08:03:58.536Z,82.26
2022-12-18T08:06:26.766Z,82.37
2022-12-18T08:08:56.321Z,81.98
2022-12-18T08:11:27.131Z,81.58
2022-12-18T08:13:56.560Z,80.64
2022-12-18T08:16:24.811Z,80.74
2022-12-18T08:18:55.704Z,80.50
2022-12-18T08:21:29.443Z,79.78
2022-12-18T08:24:00.665Z,78.77
2022-12-18T08:26:31.959Z,79.11
2022-12-18T08:29:01.104Z,78.69
2022-12-18T08:31:30.845Z,78.54
2022-12-18T08:33:59.019Z,78.98
2022-12-18T08:36:27.557Z,78.74
2022-12-18T08:38:55.678Z,77.81
2022-12-18T08:41:24.138Z,78.15
2022-12-18T08:44:10.934Z,77.93
2022-12-18T08:46:41.351Z,78.01
2022-12-18T08:49:11.241Z,77.33
2022-12-18T08:51:41.083Z,77.50
2022-12-18T08:54:14.944Z,76.96
2022-12-18T08:56:43.148Z,76.52
2022-12-18T08:59:17.296Z,76.90
2022-12-18T09:01:49.167Z,76.18
2022-12-18T09:04:17.350Z,76.03
2022-12-18T09:06:45.350Z,76.27
2022-12-18T09:09:14.453Z,76.45
2022-12-18T09:11:42.614Z,75.68
2022-12-18T09:14:11.273Z,75.71
2022-12-18T09:16:39.466Z,76.41
2022-12-18T09:19:07.736Z,76.25
2022-12-18T09:21:37.219Z,75.57
2022-12-18T09:24:08.960Z,75.73
2022-12-18T09:26:47.853Z,75.59
2022-12-18T09:29:18.827Z,75.21
2022-12-18T09:31:47.720Z,75.48
2022-12-18T09:34:16.750Z,74.73
2022-12-18T09:36:44.922Z,74.36
2022-12-18T09:39:13.067Z,74.06
2022-12-18T09:41:51.847Z,74.37
2022-12-18T09:44:41.466Z,73.81
2022-12-18T09:47:16.079Z,74.61
2022-12-18T09:49:47.330Z,74.77
2022-12-18T09:52:22.770Z,74.21
2022-12-18T09:55:38.160Z,71.65
2022-12-18T09:58:41.595Z,71.46
2022-12-18T10:01:17.805Z,71.41
2022-12-18T10:03:48.201Z,71.12
2022-12-18T10:06:23.467Z,71.52
2022-12-18T10:09:17.405Z,71.55
2022-12-18T10:11:55.344Z,71.98
2022-12-18T10:14:43.762Z,70.91
2022-12-18T10:17:21.757Z,69.72
2022-12-18T10:20:08.899Z,69.80
2022-12-18T10:22:49.230Z,69.00
2022-12-18T10:25:35.514Z,68.96
2022-12-18T10:28:18.689Z,69.13
2022-12-18T10:30:47.022Z,69.06
2022-12-18T10:33:20.018Z,69.00
2022-12-18T10:35:51.169Z,68.34
2022-12-18T10:38:20.252Z,67.36
2022-12-18T10:40:59.738Z,66.86
2022-12-18T10:43:38.827Z,67.31
2022-12-18T10:46:19.006Z,68.17
2022-12-18T10:49:06.111Z,68.21
2022-12-18T10:51:39.192Z,67.66
2022-12-18T10:54:25.791Z,68.07
2022-12-18T10:57:33.843Z,67.43
2022-12-18T11:00:29.540Z,66.21
2022-12-18T11:03:00.312Z,67.21
2022-12-18T11:05:40.327Z,67.40
2022-12-18T11:08:30.323Z,66.56
2022-12-18T11:10:58.770Z,67.41
2022-12-18T11:13:30.564Z,67.66
2022-12-18T11:16:00.362Z,67.92
2022-12-18T11:18:41.190Z,68.08
2022-12-18T11:21:12.940Z,67.94
2022-12-18T11:23:56.430Z,68.27
2022-12-18T11:26:37.514Z,68.37
2022-12-18T11:29:24.812Z,67.83
2022-12-18T11:31:53.465Z,67.37
2022-12-18T11:34:32.255Z,67.58
2022-12-18T11:37:02.791Z,68.10
2022-12-18T11:40:32.813Z,67.17
2022-12-18T11:43:18.654Z,66.89
2022-12-18T11:45:54.568Z,66.85
2022-12-18T11:48:35.992Z,66.47
2022-12-18T11:51:11.387Z,66.40
2022-12-18T11:53:41.004Z,64.95
2022-12-18T11:56:40.876Z,64.86
2022-12-18T11:59:20.024Z,65.14
2022-12-18T12:02:04.708Z,63.81
2022-12-18T12:04:33.095Z,62.30
2022-12-18T12:07:46.462Z,61.64
2022-12-18T12:10:56.391Z,60.12
2022-12-18T12:13:50.677Z,61.40
2022-12-18T12:16:22.860Z,61.21
2022-12-18T12:19:32.051Z,60.61
2022-12-18T12:22:37.424Z,60.16
2022-12-18T12:25:27.863Z,61.34
2022-12-18T12:28:16.896Z,61.67
2022-12-18T12:30:45.435Z,61.79
2022-12-18T12:33:34.794Z,62.72
2022-12-18T12:36:09.880Z,62.37
2022-12-18T12:38:49.782Z,62.08
2022-12-18T12:41:45.247Z,61.98
2022-12-18T12:44:39.482Z,62.27
2022-12-18T12:47:26.459Z,62.49
2022-12-18T12:49:56.366Z,62.62
2022-12-18T12:52:43.395Z,63.12
2022-12-18T12:55:26.518Z,63.07
2022-12-18T12:58:20.338Z,63.33
2022-12-18T13:00:55.944Z,63.99
2022-12-18T13:03:48.400Z,64.38
2022-12-18T13:06:25.761Z,64.49
2022-12-18T13:09:01.977Z,64.86
2022-12-18T13:12:00.033Z,65.04
2022-12-18T13:14:32.302Z,65.09
2022-12-18T13:17:18.452Z,65.16
2022-12-18T13:19:51.627Z,65.06
2022-12-18T13:22:33.669Z,65.58
2022-12-18T13:25:02.398Z,65.71
2022-12-18T13:27:58.103Z,66.19
2022-12-18T13:30:52.306Z,66.78
2022-12-18T13:33:50.788Z,67.43
2022-12-18T13:36:32.084Z,67.66
2022-12-18T13:42:59.967Z,66.00
2022-12-18T13:45:52.575Z,66.08
2022-12-18T13:48:24.734Z,65.70
2022-12-18T13:51:09.523Z,65.56
2022-12-18T13:53:53.578Z,65.11
2022-12-18T13:56:31.586Z,65.51
2022-12-18T13:59:14.550Z,65.90
2022-12-18T14:01:47.469Z,66.32
2022-12-18T14:04:30.570Z,66.63
2022-12-18T14:07:04.881Z,67.24
2022-12-18T14:09:44.439Z,67.96
2022-12-18T14:12:41.617Z,68.11
2022-12-18T14:15:27.687Z,68.27
2022-12-18T14:17:58.975Z,69.01
2022-12-18T14:20:29.341Z,69.96
2022-12-18T14:23:00.882Z,70.19
2022-12-18T14:25:36.402Z,70.78
2022-12-18T14:28:15.755Z,71.43
2022-12-18T14:30:46.116Z,71.96
2022-12-18T14:33:23.117Z,72.27
2022-12-18T14:36:06.518Z,72.80
2022-12-18T14:38:41.342Z,73.14
2022-12-18T14:41:14.813Z,73.01
2022-12-18T14:43:45.336Z,73.17
2022-12-18T14:46:52.621Z,73.33
2022-12-18T14:49:33.908Z,73.54
2022-12-18T14:52:07.525Z,73.88
2022-12-18T14:54:38.489Z,74.15
2022-12-18T14:57:36.769Z,74.10
2022-12-18T15:00:07.714Z,74.25
2022-12-18T15:02:37.482Z,74.62
2022-12-18T15:05:30.588Z,74.65
2022-12-18T15:08:01.133Z,75.03
2022-12-18T15:10:32.029Z,75.42
2022-12-18T15:13:01.526Z,76.03
2022-12-18T15:15:38.816Z,76.27
2022-12-18T15:18:11.393Z,76.19
2022-12-18T15:20:53.292Z,76.20
2022-12-18T15:23:25.889Z,76.24
2022-12-18T15:26:06.458Z,76.25
2022-12-18T15:28:44.363Z,76.82
2022-12-18T15:31:16.206Z,77.32
2022-12-18T15:34:04.159Z,77.65
2022-12-18T15:36:32.269Z,77.90
2022-12-18T15:39:02.923Z,78.05
2022-12-18T15:41:36.127Z,78.24
2022-12-18T15:44:26.806Z,78.44
2022-12-18T15:46:54.995Z,78.30
2022-12-18T15:49:23.042Z,78.54
2022-12-18T15:51:55.736Z,78.79
2022-12-18T15:54:43.837Z,79.03
2022-12-18T15:57:24.595Z,79.29
2022-12-18T15:59:55.185Z,79.60
2022-12-18T16:02:24.456Z,79.55
2022-12-18T16:04:53.448Z,79.45
2022-12-18T16:07:24.624Z,79.61
2022-12-18T16:09:53.655Z,79.72
2022-12-18T16:12:24.367Z,79.84
2022-12-18T16:14:52.412Z,79.89
2022-12-18T16:17:20.477Z,80.14
2022-12-18T16:19:48.573Z,80.57
2022-12-18T16:22:23.285Z,80.76
2022-12-18T16:24:53.182Z,80.68
2022-12-18T16:27:22.351Z,80.78
2022-12-18T16:29:51.304Z,80.79
2022-12-18T16:32:22.252Z,80.95
2022-12-18T16:34:51.986Z,80.77
2022-12-18T16:37:20.130Z,80.93
2022-12-18T16:39:48.092Z,80.95
2022-12-18T16:42:20.714Z,80.94
2022-12-18T16:44:50.391Z,80.94
2022-12-18T16:47:19.660Z,80.86
2022-12-18T16:49:51.585Z,80.77
2022-12-18T16:52:20.579Z,80.72
2022-12-18T16:54:51.888Z,80.46
2022-12-18T16:57:21.633Z,80.36
2022-12-18T16:59:53.415Z,80.20
2022-12-18T17:02:24.677Z,79.95
2022-12-18T17:04:57.534Z,79.95
2022-12-18T17:07:26.992Z,80.34
2022-12-18T17:09:55.556Z,80.29
2022-12-18T17:12:24.118Z,80.41
2022-12-18T17:14:54.988Z,80.95
2022-12-18T17:17:29.781Z,81.30
2022-12-18T17:19:58.129Z,81.25
2022-12-18T17:22:26.506Z,81.22
2022-12-18T17:25:25.457Z,81.54
2022-12-18T17:28:15.445Z,81.93
2022-12-18T17:30:43.551Z,82.18
2022-12-18T17:33:11.668Z,82.28
2022-12-18T17:35:39.728Z,82.58
2022-12-18T17:38:09.236Z,82.88
2022-12-18T17:40:41.905Z,82.86
2022-12-18T17:43:14.289Z,82.82
2022-12-18T17:45:42.453Z,82.50
2022-12-18T17:48:11.058Z,82.44
2022-12-18T17:50:39.435Z,82.40
2022-12-18T17:53:07.677Z,82.11
2022-12-18T17:55:36.077Z,82.07
2022-12-18T17:58:05.148Z,82.11
2022-12-18T18:00:58.678Z,81.97
2022-12-18T18:03:27.252Z,81.96
2022-12-18T18:05:59.500Z,81.96
2022-12-18T18:08:29.743Z,82.11
2022-12-18T18:11:26.528Z,82.51
2022-12-18T18:14:04.760Z,82.91
2022-12-18T18:16:40.942Z,83.61
2022-12-18T18:19:17.632Z,84.06
2022-12-18T18:21:48.478Z,84.27
2022-12-18T18:24:19.682Z,84.32
2022-12-18T18:26:47.975Z,84.27
2022-12-18T18:29:19.787Z,84.03
2022-12-18T18:31:48.543Z,83.96
2022-12-18T18:34:19.088Z,84.23
2022-12-18T18:36:47.330Z,84.33
2022-12-18T18:39:15.591Z,84.23
2022-12-18T18:41:46.472Z,84.09
2022-12-18T18:44:18.053Z,83.88
2022-12-18T18:46:46.436Z,84.01
2022-12-18T18:49:17.539Z,83.98
2022-12-18T18:51:45.570Z,83.86
2022-12-18T18:54:13.946Z,83.81
2022-12-18T18:59:31.952Z,83.58
2022-12-18T19:02:04.210Z,83.46
2022-12-18T19:04:33.631Z,83.39
2022-12-18T19:07:02.275Z,83.39
2022-12-18T19:09:31.351Z,83.40
2022-12-18T19:12:17.688Z,83.48
2022-12-18T19:14:45.951Z,83.62
2022-12-18T19:17:14.010Z,84.04
2022-12-18T19:19:42.414Z,84.07
2022-12-18T19:22:11.354Z,84.14
2022-12-18T19:24:39.447Z,84.42
2022-12-18T19:27:07.465Z,84.65
2022-12-18T19:29:35.509Z,84.83
2022-12-18T19:32:05.325Z,85.01
2022-12-18T19:34:33.368Z,85.07
2022-12-18T19:37:02.466Z,85.02
2022-12-18T19:39:37.406Z,85.28
2022-12-18T19:42:05.525Z,85.47
2022-12-18T19:44:33.597Z,85.35
2022-12-18T19:47:01.623Z,85.39
2022-12-18T19:49:30.793Z,85.30
2022-12-18T19:51:58.865Z,85.57
2022-12-18T19:54:27.054Z,85.64
2022-12-18T19:56:55.063Z,85.94
2022-12-18T19:59:23.476Z,86.44
2022-12-18T20:01:54.339Z,86.46
2022-12-18T20:04:22.535Z,86.26
2022-12-18T20:06:52.593Z,86.07
2022-12-18T20:09:21.623Z,85.97
2022-12-18T20:11:49.818Z,86.25
2022-12-18T20:14:23.234Z,86.39
2022-12-18T20:16:53.432Z,86.43
2022-12-18T20:19:22.860Z,86.52
2022-12-18T20:21:51.262Z,86.73
2022-12-18T20:24:19.426Z,86.98
2022-12-18T20:26:47.566Z,87.19
2022-12-18T20:29:15.719Z,87.40
2022-12-18T20:31:43.908Z,87.38
2022-12-18T20:34:12.196Z,87.53
2022-12-18T20:36:42.242Z,87.66
2022-12-18T20:39:20.305Z,87.58
2022-12-18T20:41:49.595Z,87.60
2022-12-18T20:44:22.910Z,87.67
2022-12-18T20:46:54.695Z,87.57
2022-12-18T20:49:29.378Z,87.53
2022-12-18T20:51:58.288Z,87.65
2022-12-18T20:54:27.766Z,87.75
2022-12-18T20:56:58.152Z,87.64
2022-12-18T20:59:26.562Z,87.39
2022-12-18T21:01:54.976Z,87.30
2022-12-18T21:04:23.896Z,87.43
2022-12-18T21:06:55.815Z,87.44
2022-12-18T21:09:38.078Z,87.40
2022-12-18T21:12:35.126Z,87.18
2022-12-18T21:15:12.566Z,87.02
2022-12-18T21:17:45.043Z,86.90
2022-12-18T21:20:18.025Z,86.72
2022-12-18T21:22:49.504Z,86.84
2022-12-18T21:25:26.319Z,86.87
2022-12-18T21:27:54.354Z,87.00
2022-12-18T21:30:22.707Z,87.08
2022-12-18T21:32:51.004Z,87.07
2022-12-18T21:35:19.167Z,87.11
2022-12-18T21:37:49.097Z,87.41
2022-12-18T21:40:17.241Z,87.55
2022-12-18T21:43:03.833Z,87.50
2022-12-18T21:45:31.929Z,87.54
2022-12-18T21:48:00.145Z,87.53
2022-12-18T21:50:32.538Z,87.46
2022-12-18T21:53:02.943Z,87.63
2022-12-18T21:55:31.062Z,88.06
2022-12-18T21:57:59.156Z,88.30
2022-12-18T22:00:27.321Z,88.24
2022-12-18T22:03:17.404Z,88.25
2022-12-18T22:05:45.121Z,88.16
2022-12-18T22:08:13.756Z,88.24
2022-12-18T22:10:41.920Z,88.89
2022-12-18T22:13:10.159Z,89.13
2022-12-18T22:15:38.244Z,89.35
2022-12-18T22:18:06.351Z,89.34
2022-12-18T22:20:34.502Z,89.16
2022-12-18T22:23:05.822Z,89.15
2022-12-18T22:25:36.287Z,89.15
2022-12-18T22:28:27.775Z,89.19
2022-12-18T22:30:59.594Z,89.07
2022-12-18T22:33:33.376Z,89.01
2022-12-18T22:36:06.939Z,88.82
2022-12-18T22:38:35.074Z,88.58
2022-12-18T22:41:03.044Z,88.45
2022-12-18T22:43:31.190Z,88.46
2022-12-18T22:45:59.326Z,88.51
2022-12-18T22:48:27.837Z,88.50
2022-12-18T22:50:59.738Z,88.68
2022-12-18T22:53:27.988Z,89.00
2022-12-18T22:56:04.510Z,89.19
2022-12-18T22:58:35.562Z,89.22
2022-12-18T23:01:04.500Z,88.98
2022-12-18T23:03:33.768Z,89.00
2022-12-18T23:06:04.119Z,88.79
2022-12-18T23:08:33.353Z,88.76
2022-12-18T23:11:02.116Z,88.48
2022-12-18T23:13:30.211Z,88.42
2022-12-18T23:15:58.344Z,88.39
2022-12-18T23:18:26.496Z,88.34
2022-12-18T23:20:54.497Z,88.34
2022-12-18T23:23:22.653Z,88.30
2022-12-18T23:25:51.005Z,88.49
2022-12-18T23:28:19.029Z,88.79
2022-12-18T23:30:47.263Z,89.11
2022-12-18T23:33:15.444Z,89.16
2022-12-18T23:35:43.706Z,89.22
2022-12-18T23:38:11.751Z,89.03
2022-12-18T23:40:40.395Z,89.02
2022-12-18T23:43:08.510Z,89.16
2022-12-18T23:45:39.645Z,89.08
2022-12-18T23:48:07.674Z,89.11
2022-12-18T23:50:35.922Z,88.95
2022-12-18T23:53:05.544Z,88.92
2022-12-18T23:55:41.194Z,88.82
2022-12-18T23:58:20.389Z,88.71
